createdAt,value
2019-02-24T00:01:19.973Z,103027.00
2019-02-24T00:03:51.598Z,103039.00
2019-02-24T00:06:23.342Z,103043.00
2019-02-24T00:08:55.315Z,103050.00
2019-02-24T00:11:26.823Z,103045.00
2019-02-24T00:13:58.419Z,103041.00
2019-02-24T00:16:29.997Z,103030.00
2019-02-24T00:19:03.750Z,103029.00
2019-02-24T00:21:35.268Z,103023.00
2019-02-24T00:24:06.939Z,103024.00
2019-02-24T00:26:40.073Z,103026.00
2019-02-24T00:29:11.768Z,103018.00
2019-02-24T00:31:43.284Z,103027.00
2019-02-24T00:34:14.810Z,103021.00
2019-02-24T00:36:46.278Z,103021.00
2019-02-24T00:39:17.858Z,103020.00
2019-02-24T00:41:49.329Z,103033.00
2019-02-24T00:44:20.837Z,103032.00
2019-02-24T00:46:52.295Z,103042.00
2019-02-24T00:49:23.776Z,103033.00
2019-02-24T00:51:55.260Z,103033.00
2019-02-24T00:54:26.967Z,103032.00
2019-02-24T00:56:58.889Z,103026.00
2019-02-24T00:59:30.506Z,103020.00
2019-02-24T01:02:02.022Z,103039.00
2019-02-24T01:04:33.904Z,103047.00
2019-02-24T01:07:05.468Z,103046.00
2019-02-24T01:09:37.673Z,103045.00
2019-02-24T01:12:09.573Z,103047.00
2019-02-24T01:14:41.166Z,103055.00
2019-02-24T01:17:12.694Z,103039.00
2019-02-24T01:19:44.224Z,103042.00
2019-02-24T01:22:15.774Z,103040.00
2019-02-24T01:24:48.636Z,103048.00
2019-02-24T01:27:20.244Z,103047.00
2019-02-24T01:29:51.882Z,103051.00
2019-02-24T01:32:24.395Z,103043.00
2019-02-24T01:34:56.044Z,103052.00
2019-02-24T01:37:27.582Z,103048.00
2019-02-24T01:40:00.252Z,103051.00
2019-02-24T01:42:31.698Z,103047.00
2019-02-24T01:45:03.172Z,103047.00
2019-02-24T01:47:34.733Z,103046.00
2019-02-24T01:50:09.843Z,103042.00
2019-02-24T01:52:41.446Z,103037.00
2019-02-24T01:55:13.269Z,103041.00
2019-02-24T01:57:47.664Z,103039.00
2019-02-24T02:00:19.372Z,103038.00
2019-02-24T02:02:50.937Z,103047.00
2019-02-24T02:05:22.437Z,103046.00
2019-02-24T02:07:53.889Z,103034.00
2019-02-24T02:10:25.360Z,103038.00
2019-02-24T02:12:57.477Z,103037.00
2019-02-24T02:15:29.215Z,103028.00
2019-02-24T02:18:00.849Z,103023.00
2019-02-24T02:20:32.514Z,103022.00
2019-02-24T02:23:03.964Z,103020.00
2019-02-24T02:25:35.495Z,103021.00
2019-02-24T02:28:07.058Z,103015.00
2019-02-24T02:30:38.536Z,103018.00
2019-02-24T02:33:11.032Z,103014.00
2019-02-24T02:35:42.507Z,103020.00
2019-02-24T02:38:14.065Z,103008.00
2019-02-24T02:40:46.729Z,103025.00
2019-02-24T02:43:18.518Z,103022.00
2019-02-24T02:45:50.210Z,103022.00
2019-02-24T02:48:21.791Z,103021.00
2019-02-24T02:50:53.383Z,103019.00
2019-02-24T02:53:24.879Z,103024.00
2019-02-24T02:56:00.365Z,103026.00
2019-02-24T02:58:37.134Z,103027.00
2019-02-24T03:01:08.611Z,103016.00
2019-02-24T03:03:40.045Z,103006.00
2019-02-24T03:06:30.487Z,103008.00
2019-02-24T03:09:01.943Z,103012.00
2019-02-24T03:11:35.126Z,103003.00
2019-02-24T03:14:06.587Z,103001.00
2019-02-24T03:16:38.062Z,103000.00
2019-02-24T03:19:09.522Z,103006.00
2019-02-24T03:21:41.011Z,102995.00
2019-02-24T03:24:12.526Z,102998.00
2019-02-24T03:26:44.162Z,102980.00
2019-02-24T03:29:15.652Z,102988.00
2019-02-24T03:31:48.504Z,102989.00
2019-02-24T03:34:20.056Z,103001.00
2019-02-24T03:36:51.689Z,102988.00
2019-02-24T03:39:23.195Z,102980.00
2019-02-24T03:41:54.671Z,102983.00
2019-02-24T03:44:26.144Z,102982.00
2019-02-24T03:46:59.307Z,102973.00
2019-02-24T03:49:30.969Z,102971.00
2019-02-24T03:52:02.488Z,102996.00
2019-02-24T03:54:34.093Z,102976.00
2019-02-24T03:57:05.598Z,102971.00
2019-02-24T03:59:37.349Z,102971.00
2019-02-24T04:02:08.976Z,102982.00
2019-02-24T04:04:40.497Z,102980.00
2019-02-24T04:07:11.999Z,102975.00
2019-02-24T04:09:43.525Z,102968.00
2019-02-24T04:12:15.024Z,102962.00
2019-02-24T04:14:46.562Z,102971.00
2019-02-24T04:17:18.015Z,102962.00
2019-02-24T04:19:49.457Z,102971.00
2019-02-24T04:22:20.972Z,102959.00
2019-02-24T04:24:52.462Z,102961.00
2019-02-24T04:27:24.000Z,102961.00
2019-02-24T04:29:55.501Z,102964.00
2019-02-24T04:32:29.745Z,102969.00
2019-02-24T04:35:02.639Z,102962.00
2019-02-24T04:37:34.193Z,102962.00
2019-02-24T04:40:05.875Z,102967.00
2019-02-24T04:42:37.512Z,102962.00
2019-02-24T04:45:10.086Z,102962.00
2019-02-24T04:47:44.280Z,102957.00
2019-02-24T04:50:15.724Z,102953.00
2019-02-24T04:52:47.197Z,102948.00
2019-02-24T04:55:18.709Z,102946.00
2019-02-24T04:57:50.222Z,102955.00
2019-02-24T05:00:21.703Z,102951.00
2019-02-24T05:02:53.326Z,102945.00
2019-02-24T05:05:24.879Z,102950.00
2019-02-24T05:07:56.464Z,102963.00
2019-02-24T05:10:27.916Z,102964.00
2019-02-24T05:12:59.434Z,102950.00
2019-02-24T05:15:30.899Z,102956.00
2019-02-24T05:18:02.356Z,102952.00
2019-02-24T05:20:33.842Z,102952.00
2019-02-24T05:23:05.401Z,102952.00
2019-02-24T05:25:36.848Z,102959.00
2019-02-24T05:28:08.413Z,102955.00
2019-02-24T05:30:39.854Z,102953.00
2019-02-24T05:33:11.421Z,102960.00
2019-02-24T05:35:42.873Z,102958.00
2019-02-24T05:38:14.383Z,102964.00
2019-02-24T05:40:45.854Z,102969.00
2019-02-24T05:43:17.378Z,102956.00
2019-02-24T05:46:00.273Z,102963.00
2019-02-24T05:48:33.608Z,102964.00
2019-02-24T05:51:04.939Z,102949.00
2019-02-24T05:53:36.398Z,102955.00
2019-02-24T05:56:07.865Z,102953.00
2019-02-24T05:58:39.360Z,102959.00
2019-02-24T06:01:10.821Z,102957.00
2019-02-24T06:03:42.312Z,102948.00
2019-02-24T06:06:13.796Z,102954.00
2019-02-24T06:08:45.346Z,102963.00
2019-02-24T06:11:16.798Z,102950.00
2019-02-24T06:13:48.355Z,102944.00
2019-02-24T06:16:19.909Z,102943.00
2019-02-24T06:18:51.413Z,102936.00
2019-02-24T06:21:22.971Z,102926.00
2019-02-24T06:23:54.456Z,102937.00
2019-02-24T06:26:26.122Z,102940.00
2019-02-24T06:28:57.650Z,102954.00
2019-02-24T06:31:29.112Z,102954.00
2019-02-24T06:34:00.665Z,102939.00
2019-02-24T06:36:32.130Z,102931.00
2019-02-24T06:39:05.268Z,102947.00
2019-02-24T06:41:36.730Z,102975.00
2019-02-24T06:44:08.207Z,102997.00
2019-02-24T06:46:39.652Z,102986.00
2019-02-24T06:49:11.118Z,102992.00
2019-02-24T06:51:42.788Z,102984.00
2019-02-24T06:54:14.284Z,102976.00
2019-02-24T06:56:45.730Z,102970.00
2019-02-24T06:59:17.189Z,102978.00
2019-02-24T07:01:48.637Z,102990.00
2019-02-24T07:04:32.005Z,102993.00
2019-02-24T07:07:03.501Z,102994.00
2019-02-24T07:09:34.998Z,102986.00
2019-02-24T07:12:06.526Z,102989.00
2019-02-24T07:14:38.261Z,103010.00
2019-02-24T07:17:09.748Z,103001.00
2019-02-24T07:19:41.270Z,102996.00
2019-02-24T07:22:12.710Z,102993.00
2019-02-24T07:24:44.196Z,102991.00
2019-02-24T07:27:15.678Z,102990.00
2019-02-24T07:29:47.208Z,103000.00
2019-02-24T07:32:18.672Z,103004.00
2019-02-24T07:34:50.137Z,103014.00
2019-02-24T07:37:21.697Z,103003.00
2019-02-24T07:39:54.854Z,103004.00
2019-02-24T07:42:26.391Z,103007.00
2019-02-24T07:44:57.976Z,103011.00
2019-02-24T07:47:29.442Z,103007.00
2019-02-24T07:50:00.964Z,103002.00
2019-02-24T07:52:32.523Z,103004.00
2019-02-24T07:55:04.032Z,103000.00
2019-02-24T07:57:35.629Z,102994.00
2019-02-24T08:00:07.952Z,102999.00
2019-02-24T08:02:39.522Z,103007.00
2019-02-24T08:05:11.113Z,103010.00
2019-02-24T08:07:42.830Z,103011.00
2019-02-24T08:10:14.465Z,103016.00
2019-02-24T08:12:45.965Z,103022.00
2019-02-24T08:15:17.439Z,103017.00
2019-02-24T08:17:48.951Z,103020.00
2019-02-24T08:20:20.456Z,103014.00
2019-02-24T08:22:51.967Z,103028.00
2019-02-24T08:25:23.493Z,103015.00
2019-02-24T08:27:55.628Z,103026.00
2019-02-24T08:30:27.371Z,103014.00
2019-02-24T08:32:58.831Z,103013.00
2019-02-24T08:35:30.589Z,103013.00
2019-02-24T08:38:02.044Z,103009.00
2019-02-24T08:40:33.582Z,102998.00
2019-02-24T08:43:05.038Z,103001.00
2019-02-24T08:45:36.603Z,102995.00
2019-02-24T08:48:08.079Z,102999.00
2019-02-24T08:50:39.605Z,103007.00
2019-02-24T08:53:11.083Z,102999.00
2019-02-24T08:55:42.608Z,102995.00
2019-02-24T08:58:14.196Z,103002.00
2019-02-24T09:00:51.098Z,102997.00
2019-02-24T09:03:19.088Z,102993.00
2019-02-24T09:05:54.215Z,102985.00
2019-02-24T09:08:25.685Z,102982.00
2019-02-24T09:10:57.227Z,102976.00
2019-02-24T09:13:34.417Z,102987.00
2019-02-24T09:16:05.995Z,102989.00
2019-02-24T09:18:37.642Z,102992.00
2019-02-24T09:21:09.138Z,102991.00
2019-02-24T09:23:40.640Z,102987.00
2019-02-24T09:26:13.351Z,102991.00
2019-02-24T09:28:44.989Z,102981.00
2019-02-24T09:31:16.600Z,102977.00
2019-02-24T09:33:48.097Z,103004.00
2019-02-24T09:36:19.578Z,102999.00
2019-02-24T09:38:51.086Z,103009.00
2019-02-24T09:41:22.685Z,103014.00
2019-02-24T09:43:54.193Z,103011.00
2019-02-24T09:46:28.175Z,103014.00
2019-02-24T09:48:59.380Z,103015.00
2019-02-24T09:51:31.309Z,103022.00
2019-02-24T09:54:04.176Z,103018.00
2019-02-24T09:56:37.881Z,103014.00
2019-02-24T09:59:14.916Z,102997.00
2019-02-24T10:01:46.445Z,103003.00
2019-02-24T10:04:20.318Z,103008.00
2019-02-24T10:06:51.872Z,103019.00
2019-02-24T10:09:23.434Z,103014.00
2019-02-24T10:11:55.006Z,103012.00
2019-02-24T10:14:26.552Z,103023.00
2019-02-24T10:16:58.172Z,103021.00
2019-02-24T10:19:31.333Z,103033.00
2019-02-24T10:22:03.986Z,103034.00
2019-02-24T10:24:35.595Z,103036.00
2019-02-24T10:27:07.266Z,103033.00
2019-02-24T10:29:39.006Z,103026.00
2019-02-24T10:32:10.817Z,103028.00
2019-02-24T10:34:42.675Z,103026.00
2019-02-24T10:37:23.858Z,103025.00
2019-02-24T10:39:55.697Z,103016.00
2019-02-24T10:42:27.775Z,103016.00
2019-02-24T10:44:59.482Z,103025.00
2019-02-24T10:47:38.792Z,103027.00
2019-02-24T10:50:13.417Z,103017.00
2019-02-24T10:52:48.587Z,103019.00
2019-02-24T10:55:23.427Z,103025.00
2019-02-24T10:57:57.678Z,103024.00
2019-02-24T11:00:31.712Z,103020.00
2019-02-24T11:03:09.380Z,103021.00
2019-02-24T11:05:44.161Z,103009.00
2019-02-24T11:08:15.907Z,103010.00
2019-02-24T11:10:47.537Z,103009.00
2019-02-24T11:13:19.437Z,103017.00
2019-02-24T11:15:50.981Z,103017.00
2019-02-24T11:18:22.492Z,103011.00
2019-02-24T11:20:53.995Z,103018.00
2019-02-24T11:23:25.526Z,103022.00
2019-02-24T11:25:57.034Z,103026.00
2019-02-24T11:28:28.642Z,103013.00
2019-02-24T11:31:00.369Z,103023.00
2019-02-24T11:33:32.896Z,103029.00
2019-02-24T11:36:06.649Z,103016.00
2019-02-24T11:38:38.159Z,103011.00
2019-02-24T11:41:09.893Z,103014.00
2019-02-24T11:43:41.926Z,103010.00
2019-02-24T11:46:13.908Z,103004.00
2019-02-24T11:48:46.077Z,102997.00
2019-02-24T11:51:18.729Z,102998.00
2019-02-24T11:53:55.440Z,102999.00
2019-02-24T11:56:28.740Z,102989.00
2019-02-24T11:59:00.800Z,102977.00
2019-02-24T12:01:32.390Z,102987.00
2019-02-24T12:04:04.033Z,102998.00
2019-02-24T12:06:35.583Z,103012.00
2019-02-24T12:09:08.720Z,103002.00
2019-02-24T12:11:40.272Z,102997.00
2019-02-24T12:14:11.872Z,103000.00
2019-02-24T12:16:43.416Z,103001.00
2019-02-24T12:19:15.414Z,103001.00
2019-02-24T12:21:47.207Z,102997.00
2019-02-24T12:24:19.158Z,102993.00
2019-02-24T12:26:51.183Z,102986.00
2019-02-24T12:29:24.020Z,102982.00
2019-02-24T12:32:03.083Z,102987.00
2019-02-24T12:34:38.635Z,102986.00
2019-02-24T12:37:10.166Z,102978.00
2019-02-24T12:39:41.738Z,102973.00
2019-02-24T12:42:16.891Z,102964.00
2019-02-24T12:44:53.784Z,102971.00
2019-02-24T12:47:26.257Z,102971.00
2019-02-24T12:50:03.316Z,102974.00
2019-02-24T12:52:31.333Z,102976.00
2019-02-24T12:55:03.056Z,102973.00
2019-02-24T12:57:36.998Z,102958.00
2019-02-24T13:00:14.043Z,102959.00
2019-02-24T13:02:46.716Z,102969.00
2019-02-24T13:05:18.401Z,102967.00
2019-02-24T13:07:49.932Z,102973.00
2019-02-24T13:10:21.588Z,102959.00
2019-02-24T13:12:54.065Z,102951.00
2019-02-24T13:15:27.765Z,102961.00
2019-02-24T13:18:03.234Z,102957.00
2019-02-24T13:20:35.847Z,102965.00
2019-02-24T13:23:07.976Z,102960.00
2019-02-24T13:25:46.201Z,102956.00
2019-02-24T13:28:18.977Z,102954.00
2019-02-24T13:30:50.638Z,102950.00
2019-02-24T13:33:22.202Z,102952.00
2019-02-24T13:35:53.867Z,102953.00
2019-02-24T13:38:25.383Z,102939.00
2019-02-24T13:40:56.880Z,102943.00
2019-02-24T13:43:28.419Z,102941.00
2019-02-24T13:46:02.319Z,102947.00
2019-02-24T13:48:35.115Z,102949.00
2019-02-24T13:51:07.759Z,102946.00
2019-02-24T13:53:40.316Z,102945.00
2019-02-24T13:56:15.558Z,102943.00
2019-02-24T13:58:48.097Z,102943.00
2019-02-24T14:01:19.822Z,102942.00
2019-02-24T14:03:51.301Z,102938.00
2019-02-24T14:06:22.812Z,102940.00
2019-02-24T14:08:54.445Z,102928.00
2019-02-24T14:11:37.749Z,102930.00
2019-02-24T14:14:09.956Z,102924.00
2019-02-24T14:16:44.637Z,102925.00
2019-02-24T14:19:16.192Z,102936.00
2019-02-24T14:21:48.077Z,102940.00
2019-02-24T14:24:20.099Z,102937.00
2019-02-24T14:26:52.783Z,102946.00
2019-02-24T14:29:24.252Z,102941.00
2019-02-24T14:31:55.788Z,102949.00
2019-02-24T14:34:27.277Z,102938.00
2019-02-24T14:36:59.557Z,102937.00
2019-02-24T14:39:31.030Z,102931.00
2019-02-24T14:42:04.119Z,102936.00
2019-02-24T14:44:35.731Z,102934.00
2019-02-24T14:47:07.258Z,102925.00
2019-02-24T14:49:38.746Z,102935.00
2019-02-24T14:52:10.461Z,102926.00
2019-02-24T14:54:42.082Z,102933.00
2019-02-24T14:57:13.813Z,102942.00
2019-02-24T14:59:46.371Z,102942.00
2019-02-24T15:02:20.511Z,102943.00
2019-02-24T15:04:56.351Z,102943.00
2019-02-24T15:07:27.935Z,102945.00
2019-02-24T15:09:59.431Z,102952.00
2019-02-24T15:12:31.340Z,102942.00
2019-02-24T15:15:02.857Z,102947.00
2019-02-24T15:17:35.669Z,102942.00
2019-02-24T15:20:09.242Z,102948.00
2019-02-24T15:22:41.675Z,102950.00
2019-02-24T15:25:14.308Z,102961.00
2019-02-24T15:27:45.864Z,102959.00
2019-02-24T15:30:38.160Z,102963.00
2019-02-24T15:33:09.871Z,102968.00
2019-02-24T15:35:43.045Z,102959.00
2019-02-24T15:38:14.544Z,102962.00
2019-02-24T15:40:46.067Z,102958.00
2019-02-24T15:43:17.997Z,102959.00
2019-02-24T15:45:50.653Z,102950.00
2019-02-24T15:48:22.263Z,102948.00
2019-02-24T15:50:53.776Z,102957.00
2019-02-24T15:53:25.364Z,102947.00
2019-02-24T15:55:58.055Z,102937.00
2019-02-24T15:58:29.615Z,102946.00
2019-02-24T16:01:01.364Z,102945.00
2019-02-24T16:03:33.066Z,102954.00
2019-02-24T16:06:04.599Z,102955.00
2019-02-24T16:08:36.121Z,102946.00
2019-02-24T16:11:07.639Z,102946.00
2019-02-24T16:13:39.155Z,102943.00
2019-02-24T16:16:10.693Z,102952.00
2019-02-24T16:18:42.247Z,102943.00
2019-02-24T16:21:13.732Z,102948.00
2019-02-24T16:23:45.465Z,102937.00
2019-02-24T16:26:21.990Z,102941.00
2019-02-24T16:28:55.440Z,102945.00
2019-02-24T16:31:28.566Z,102936.00
2019-02-24T16:34:06.579Z,102940.00
2019-02-24T16:36:38.396Z,102932.00
2019-02-24T16:39:09.925Z,102943.00
2019-02-24T16:41:41.503Z,102940.00
2019-02-24T16:44:13.445Z,102933.00
2019-02-24T16:46:45.510Z,102947.00
2019-02-24T16:49:17.323Z,102959.00
2019-02-24T16:51:48.842Z,102958.00
2019-02-24T16:54:20.417Z,102950.00
2019-02-24T16:56:51.894Z,102951.00
2019-02-24T16:59:23.416Z,102958.00
2019-02-24T17:01:54.887Z,102957.00
2019-02-24T17:04:26.432Z,102971.00
2019-02-24T17:06:57.986Z,102979.00
2019-02-24T17:09:29.526Z,102971.00
2019-02-24T17:12:01.240Z,102975.00
2019-02-24T17:14:32.854Z,102988.00
2019-02-24T17:17:05.990Z,102994.00
2019-02-24T17:19:40.966Z,102998.00
2019-02-24T17:22:13.634Z,103002.00
2019-02-24T17:24:45.557Z,102995.00
2019-02-24T17:27:17.233Z,102995.00
2019-02-24T17:29:48.831Z,102987.00
2019-02-24T17:32:20.409Z,102985.00
2019-02-24T17:34:52.239Z,102991.00
2019-02-24T17:37:23.744Z,102994.00
2019-02-24T17:39:57.464Z,102991.00
2019-02-24T17:42:29.850Z,102989.00
2019-02-24T17:45:01.369Z,102988.00
2019-02-24T17:47:33.070Z,102998.00
2019-02-24T17:50:04.579Z,102999.00
2019-02-24T17:52:36.127Z,102999.00
2019-02-24T17:55:10.308Z,102999.00
2019-02-24T17:57:42.316Z,103002.00
2019-02-24T18:00:23.075Z,103002.00
2019-02-24T18:02:55.702Z,103006.00
2019-02-24T18:05:27.413Z,102998.00
2019-02-24T18:07:59.000Z,102999.00
2019-02-24T18:10:30.547Z,102985.00
2019-02-24T18:13:02.081Z,102994.00
2019-02-24T18:15:33.659Z,103000.00
2019-02-24T18:18:07.964Z,103001.00
2019-02-24T18:20:39.534Z,103003.00
2019-02-24T18:23:11.093Z,103003.00
2019-02-24T18:25:42.761Z,103008.00
2019-02-24T18:28:14.509Z,103014.00
2019-02-24T18:30:55.219Z,103009.00
2019-02-24T18:33:26.831Z,103011.00
2019-02-24T18:35:58.351Z,103013.00
2019-02-24T18:38:30.945Z,103017.00
2019-02-24T18:41:02.502Z,103009.00
2019-02-24T18:43:34.134Z,103011.00
2019-02-24T18:46:05.638Z,103012.00
2019-02-24T18:48:37.122Z,103011.00
2019-02-24T18:51:08.592Z,103018.00
2019-02-24T18:53:40.049Z,103022.00
2019-02-24T18:56:11.590Z,103023.00
2019-02-24T18:58:43.121Z,103022.00
2019-02-24T19:01:14.648Z,103018.00
2019-02-24T19:03:46.165Z,103025.00
2019-02-24T19:06:17.825Z,103022.00
2019-02-24T19:08:49.345Z,103022.00
2019-02-24T19:11:20.928Z,103025.00
2019-02-24T19:13:53.024Z,103030.00
2019-02-24T19:16:25.337Z,103035.00
2019-02-24T19:18:57.529Z,103032.00
2019-02-24T19:21:29.453Z,103028.00
2019-02-24T19:24:01.146Z,103024.00
2019-02-24T19:26:32.802Z,103033.00
2019-02-24T19:29:04.517Z,103024.00
2019-02-24T19:31:36.149Z,103023.00
2019-02-24T19:34:09.011Z,103037.00
2019-02-24T19:36:40.649Z,103027.00
2019-02-24T19:39:15.645Z,103023.00
2019-02-24T19:41:47.309Z,103024.00
2019-02-24T19:44:22.026Z,103027.00
2019-02-24T19:46:53.676Z,103018.00
2019-02-24T19:49:25.170Z,103026.00
2019-02-24T19:51:56.776Z,103025.00
2019-02-24T19:54:28.384Z,103036.00
2019-02-24T19:57:01.245Z,103030.00
2019-02-24T19:59:33.577Z,103023.00
2019-02-24T20:02:05.518Z,103021.00
2019-02-24T20:04:37.375Z,103021.00
2019-02-24T20:07:09.171Z,103027.00
2019-02-24T20:09:40.853Z,103029.00
2019-02-24T20:12:15.431Z,103031.00
2019-02-24T20:14:47.000Z,103037.00
2019-02-24T20:17:18.543Z,103031.00
2019-02-24T20:19:50.098Z,103024.00
2019-02-24T20:22:21.658Z,103027.00
2019-02-24T20:24:53.236Z,103025.00
2019-02-24T20:27:24.860Z,103029.00
2019-02-24T20:29:56.391Z,103043.00
2019-02-24T20:32:27.994Z,103041.00
2019-02-24T20:34:59.562Z,103034.00
2019-02-24T20:37:31.117Z,103044.00
2019-02-24T20:40:02.649Z,103042.00
2019-02-24T20:42:34.253Z,103040.00
2019-02-24T20:45:06.159Z,103041.00
2019-02-24T20:47:38.258Z,103041.00
2019-02-24T20:50:11.817Z,103030.00
2019-02-24T20:52:43.600Z,103040.00
2019-02-24T20:55:15.533Z,103047.00
2019-02-24T20:57:48.631Z,103045.00
2019-02-24T21:00:28.779Z,103044.00
2019-02-24T21:03:01.406Z,103041.00
2019-02-24T21:05:33.190Z,103044.00
2019-02-24T21:08:04.686Z,103058.00
2019-02-24T21:10:36.131Z,103047.00
2019-02-24T21:13:07.628Z,103020.00
2019-02-24T21:15:39.105Z,103062.00
2019-02-24T21:18:10.605Z,103059.00
2019-02-24T21:20:42.142Z,103052.00
2019-02-24T21:23:14.029Z,103048.00
2019-02-24T21:25:45.587Z,103047.00
2019-02-24T21:28:17.525Z,103047.00
2019-02-24T21:30:51.195Z,103039.00
2019-02-24T21:33:22.881Z,103035.00
2019-02-24T21:35:54.637Z,103031.00
2019-02-24T21:38:26.311Z,103033.00
2019-02-24T21:40:58.149Z,103025.00
2019-02-24T21:43:29.868Z,103023.00
2019-02-24T21:46:01.361Z,103014.00
2019-02-24T21:48:32.871Z,103021.00
2019-02-24T21:51:04.556Z,103032.00
2019-02-24T21:53:36.187Z,103034.00
2019-02-24T21:56:07.659Z,103034.00
2019-02-24T21:58:39.427Z,103048.00
2019-02-24T22:01:10.895Z,103045.00
2019-02-24T22:03:42.393Z,103036.00
2019-02-24T22:06:13.877Z,103034.00
2019-02-24T22:08:45.383Z,103029.00
2019-02-24T22:11:17.143Z,103022.00
2019-02-24T22:13:49.223Z,103024.00
2019-02-24T22:16:20.965Z,103023.00
2019-02-24T22:18:52.515Z,103019.00
2019-02-24T22:21:24.866Z,103024.00
2019-02-24T22:23:56.544Z,103018.00
2019-02-24T22:26:29.287Z,103015.00
2019-02-24T22:29:01.198Z,103005.00
2019-02-24T22:31:32.909Z,103007.00
2019-02-24T22:34:04.460Z,103003.00
2019-02-24T22:36:36.032Z,103013.00
2019-02-24T22:39:08.917Z,103010.00
2019-02-24T22:41:42.164Z,103013.00
2019-02-24T22:44:13.908Z,103008.00
2019-02-24T22:46:45.444Z,103007.00
2019-02-24T22:49:17.025Z,103008.00
2019-02-24T22:51:48.598Z,102997.00
2019-02-24T22:54:20.117Z,102996.00
2019-02-24T22:56:51.715Z,102993.00
2019-02-24T22:59:23.332Z,103000.00
2019-02-24T23:01:55.230Z,102992.00
2019-02-24T23:04:26.826Z,102969.00
2019-02-24T23:07:01.433Z,103005.00
2019-02-24T23:09:33.182Z,102998.00
2019-02-24T23:12:04.854Z,103005.00
2019-02-24T23:14:36.596Z,103004.00
2019-02-24T23:17:08.176Z,103013.00
2019-02-24T23:19:39.809Z,103008.00
2019-02-24T23:22:11.308Z,102997.00
2019-02-24T23:24:42.833Z,102990.00
2019-02-24T23:27:14.451Z,102996.00
2019-02-24T23:29:46.110Z,103000.00
2019-02-24T23:32:17.761Z,102998.00
2019-02-24T23:34:49.280Z,103000.00
2019-02-24T23:37:20.776Z,102992.00
2019-02-24T23:39:52.274Z,102993.00
2019-02-24T23:42:23.908Z,102984.00
2019-02-24T23:44:55.421Z,102975.00
2019-02-24T23:47:26.884Z,102971.00
2019-02-24T23:49:58.453Z,102979.00
2019-02-24T23:52:29.906Z,102980.00
2019-02-24T23:55:01.444Z,102981.00
2019-02-24T23:57:32.973Z,102978.00
